Etusivu
METAR-TAF:

METAR-TAF

Lentoasemat :

Taylorville Municipal Airport

Taylorville, Illinois, Yhdysvallat

Leveyspiiri: 39-32-03N, Pituuspiiri: 089-19-40W, korkeus merenpinnasta: 190 m

Tämänhetkinen sää

Tämä raportti tehtiin 32 minuuttia sitten, kello 21.55 UTC
Tuuli 18 kn pohjoisen/luoteesta
Lämpötila -6°C
Kosteus 93%
Ilmanpaine 1027 hPa
Näkyvyys: 1.6 km
Pilvistä 1200 ft:n korkeudessa
heikkoa lumisadetta

METAR: KTAZ 112155Z AUTO 33018KT 1SM -SN OVC012 M06/M07 A3032 RMK AO2 T10581072

Aika: 16:27 (22:27 UTC)


TAF: puuttuu

Säähavainnot ja -ennusteet yli 4000 lentoasemalta (METAR- ja TAF-raportit).

Käytössä olevat sääasemat on merkitty karttaan keltaisilla ja punaisilla pisteillä.

Aseta hiiri pisteen päälle nähdäksesi sääaseman nimen.

Klikkaa sitten nähdäksesi säähavainnot ja -ennusteet.

Kartan vaihtaminen: klikkaa mustalla rastilla varustettuja vihreitä pisteitä, niin voit zoomata sisään; viivalla varustettua vihreää pistettä, niin voit zoomata ulos tai vihreitä nuolia, niin pääset viereisille kartoille.


METAR-TAF: